Time;durP1;ratioP1;P1;durP2;ratioP2;P2;SDS_P1;SDS_P2;PMS_P1;PMS_P2;Temp;Humidity;BMP_temperature;BMP_pressure;BME280_temperature;BME280_humidity;BME280_pressure;Samples;Min_cycle;Max_cycle;Signal;HPM_P1;HPM_P2
2023/07/03 00:01:14;;;;;;;15.18;4.50;;;16.40;99.90;;;;;;5053798;28;20037;-76
2023/07/03 00:03:39;;;;;;;14.77;4.78;;;16.30;99.90;;;;;;5046925;28;20037;-76
2023/07/03 00:06:05;;;;;;;15.82;4.90;;;16.20;99.90;;;;;;5055107;28;20412;-76
2023/07/03 00:08:31;;;;;;;14.48;4.25;;;16.50;99.90;;;;;;5057362;28;20480;-76
2023/07/03 00:11:04;;;;;;;16.42;4.97;;;16.30;99.90;;;;;;5057706;28;20055;-76
2023/07/03 00:13:30;;;;;;;15.15;4.63;;;16.30;99.90;;;;;;5057733;28;20044;-76
2023/07/03 00:16:03;;;;;;;14.40;4.07;;;16.30;99.90;;;;;;5056556;28;20120;-76
2023/07/03 00:18:29;;;;;;;17.30;4.88;;;16.20;99.90;;;;;;5073787;28;20489;-76
2023/07/03 00:20:55;;;;;;;14.73;5.22;;;16.30;99.90;;;;;;5071777;28;20445;-76
2023/07/03 00:23:22;;;;;;;15.73;4.38;;;16.20;99.90;;;;;;5071283;28;20123;-76
2023/07/03 00:25:48;;;;;;;12.88;4.40;;;16.20;99.90;;;;;;5037290;28;20071;-76
2023/07/03 00:28:14;;;;;;;13.93;4.22;;;16.20;99.90;;;;;;5053039;28;20492;-76
2023/07/03 00:30:39;;;;;;;12.07;4.57;;;16.20;99.90;;;;;;5048308;28;20123;-75
2023/07/03 00:33:05;;;;;;;14.50;4.47;;;16.20;99.90;;;;;;5074090;28;20128;-75
2023/07/03 00:35:30;;;;;;;15.15;4.70;;;16.20;99.90;;;;;;5055100;28;20031;-75
2023/07/03 00:37:56;;;;;;;13.18;3.83;;;16.20;99.90;;;;;;5056887;28;20047;-76
2023/07/03 00:40:22;;;;;;;13.75;4.78;;;16.20;99.90;;;;;;5045400;28;20045;-76
2023/07/03 00:42:52;;;;;;;15.45;4.32;;;16.30;99.90;;;;;;5053875;28;20041;-76
2023/07/03 00:45:19;;;;;;;13.95;4.28;;;16.30;99.90;;;;;;5053210;28;20497;-76
2023/07/03 00:47:45;;;;;;;12.80;4.32;;;16.30;99.90;;;;;;5053659;28;20045;-76
2023/07/03 00:50:11;;;;;;;13.23;4.20;;;16.30;99.90;;;;;;5053324;28;20036;-76
2023/07/03 00:52:39;;;;;;;14.18;4.10;;;16.10;99.90;;;;;;5051554;28;20447;-76
2023/07/03 00:55:05;;;;;;;14.88;4.45;;;16.20;99.90;;;;;;5036699;28;20218;-76
2023/07/03 00:57:31;;;;;;;14.77;4.53;;;16.20;99.90;;;;;;5036952;28;20489;-76
2023/07/03 00:59:59;;;;;;;16.10;5.13;;;16.20;99.90;;;;;;5053146;28;20128;-76
2023/07/03 01:02:34;;;;;;;15.27;4.50;;;16.20;99.90;;;;;;5053460;28;20100;-76
2023/07/03 01:05:23;;;;;;;15.70;4.53;;;16.20;99.90;;;;;;5052563;28;20433;-76
2023/07/03 01:07:51;;;;;;;16.83;5.25;;;16.20;99.90;;;;;;5063066;28;20048;-76
2023/07/03 01:10:22;;;;;;;14.38;4.88;;;16.10;99.90;;;;;;5053119;28;20102;-76
2023/07/03 01:12:52;;;;;;;16.27;4.78;;;16.10;99.90;;;;;;5069852;28;20052;-75
2023/07/03 01:15:24;;;;;;;14.15;4.93;;;16.10;99.90;;;;;;5057728;28;20032;-76
2023/07/03 01:17:52;;;;;;;19.55;5.45;;;16.10;99.90;;;;;;5061175;28;20041;-76
2023/07/03 01:20:19;;;;;;;17.58;5.43;;;16.10;99.90;;;;;;5043649;28;20525;-76
2023/07/03 01:23:01;;;;;;;15.40;5.18;;;16.10;99.90;;;;;;5051254;28;20045;-77
2023/07/03 01:25:27;;;;;;;18.50;5.15;;;16.10;99.90;;;;;;5052001;28;20048;-76
2023/07/03 01:27:55;;;;;;;17.05;5.13;;;16.20;99.90;;;;;;5031822;28;20057;-76
2023/07/03 01:30:21;;;;;;;15.20;4.57;;;16.10;99.90;;;;;;5077167;28;20500;-76
2023/07/03 01:32:50;;;;;;;16.55;5.22;;;16.10;99.90;;;;;;5065589;28;20044;-76
2023/07/03 01:35:17;;;;;;;18.27;5.70;;;16.10;99.90;;;;;;5056392;28;20045;-76
2023/07/03 01:37:47;;;;;;;20.63;4.78;;;16.10;99.90;;;;;;5032841;28;20108;-76
2023/07/03 01:40:16;;;;;;;16.73;5.10;;;16.00;99.90;;;;;;5048189;28;20080;-76
2023/07/03 01:42:43;;;;;;;14.30;4.72;;;16.00;99.90;;;;;;5030561;28;20032;-76
2023/07/03 01:45:09;;;;;;;16.88;4.75;;;16.00;99.90;;;;;;5040976;28;20058;-76
2023/07/03 01:47:36;;;;;;;15.48;5.00;;;16.00;99.90;;;;;;5035462;28;20468;-76
2023/07/03 01:50:05;;;;;;;13.52;4.65;;;16.00;99.90;;;;;;5046768;28;20732;-76
2023/07/03 01:52:39;;;;;;;17.48;5.22;;;15.90;99.90;;;;;;5041356;28;20053;-76
2023/07/03 01:55:20;;;;;;;17.20;5.57;;;15.90;99.90;;;;;;5045665;28;20055;-75
2023/07/03 01:57:58;;;;;;;18.05;5.20;;;15.90;99.90;;;;;;5043366;28;20528;-75
2023/07/03 02:00:45;;;;;;;16.80;4.85;;;15.90;99.90;;;;;;5040471;28;20400;-75
2023/07/03 02:03:23;;;;;;;15.45;5.50;;;16.00;99.90;;;;;;5042402;28;20048;-74
2023/07/03 02:05:51;;;;;;;16.85;4.78;;;16.00;99.90;;;;;;5047274;28;20049;-75
2023/07/03 02:08:18;;;;;;;19.88;4.93;;;15.90;99.90;;;;;;5062015;28;20052;-76
2023/07/03 02:10:44;;;;;;;17.08;4.97;;;15.90;99.90;;;;;;5046013;28;20066;-76
2023/07/03 02:13:10;;;;;;;15.98;5.00;;;15.90;99.90;;;;;;5040305;28;20432;-76
2023/07/03 02:15:36;;;;;;;14.60;4.78;;;15.90;99.90;;;;;;5066809;28;20041;-76
2023/07/03 02:18:02;;;;;;;14.70;4.90;;;16.00;99.90;;;;;;5053208;28;20036;-76
2023/07/03 02:20:28;;;;;;;20.02;5.32;;;16.00;99.90;;;;;;5072035;28;20098;-75
2023/07/03 02:22:54;;;;;;;20.33;5.10;;;16.00;99.90;;;;;;5070109;28;20048;-76
2023/07/03 02:25:19;;;;;;;19.10;5.40;;;15.90;99.90;;;;;;5040334;28;20412;-76
2023/07/03 02:27:45;;;;;;;14.05;4.50;;;15.80;99.90;;;;;;5056219;28;20068;-76
2023/07/03 02:30:11;;;;;;;20.50;4.82;;;15.70;99.90;;;;;;5041224;28;20055;-76
2023/07/03 02:32:39;;;;;;;12.48;4.10;;;15.60;99.90;;;;;;5041607;28;20473;-75
2023/07/03 02:35:06;;;;;;;16.55;4.85;;;15.50;99.90;;;;;;5039941;28;22284;-76
2023/07/03 02:37:32;;;;;;;16.85;4.55;;;15.50;99.90;;;;;;5038782;28;20253;-76
2023/07/03 02:39:58;;;;;;;12.00;4.32;;;15.40;99.90;;;;;;5031931;28;20049;-76
2023/07/03 02:42:24;;;;;;;13.93;4.70;;;15.40;99.90;;;;;;5055706;28;20446;-76
2023/07/03 02:44:52;;;;;;;13.20;4.00;;;15.30;99.90;;;;;;5055277;28;20045;-76
2023/07/03 02:47:17;;;;;;;13.57;4.20;;;15.30;99.90;;;;;;5071120;28;20119;-76
2023/07/03 02:49:43;;;;;;;12.27;3.90;;;15.40;99.90;;;;;;5043744;28;20606;-75
2023/07/03 02:52:08;;;;;;;14.07;4.05;;;15.40;99.90;;;;;;5058834;28;20052;-76
2023/07/03 02:54:34;;;;;;;11.13;3.78;;;15.50;99.90;;;;;;5054790;28;20043;-76
2023/07/03 02:57:00;;;;;;;12.82;4.05;;;15.50;99.90;;;;;;5043322;28;20393;-76
2023/07/03 02:59:25;;;;;;;15.52;4.70;;;15.50;99.90;;;;;;5030918;28;20504;-76
2023/07/03 03:01:51;;;;;;;13.30;4.40;;;15.40;99.90;;;;;;5036136;28;20140;-76
2023/07/03 03:04:17;;;;;;;10.25;3.42;;;15.30;99.90;;;;;;5053392;28;20036;-75
2023/07/03 03:06:43;;;;;;;12.95;3.58;;;15.30;99.90;;;;;;5048831;28;20036;-76
2023/07/03 03:09:09;;;;;;;15.75;3.75;;;15.30;99.90;;;;;;5064597;28;20036;-76
2023/07/03 03:11:35;;;;;;;13.32;3.80;;;15.30;99.90;;;;;;5047832;28;20048;-76
2023/07/03 03:14:02;;;;;;;11.73;3.22;;;15.20;99.90;;;;;;5028089;28;20044;-75
2023/07/03 03:16:27;;;;;;;15.50;3.78;;;15.20;99.90;;;;;;5060536;28;20045;-76
2023/07/03 03:18:53;;;;;;;14.18;3.58;;;15.10;99.90;;;;;;5063455;28;20090;-76
2023/07/03 03:21:18;;;;;;;13.20;3.42;;;15.10;99.90;;;;;;5058720;28;20040;-76
2023/07/03 03:23:46;;;;;;;10.98;2.72;;;15.00;99.90;;;;;;5075045;28;20497;-76
2023/07/03 03:26:12;;;;;;;13.00;3.20;;;15.10;99.90;;;;;;5057555;28;20056;-76
2023/07/03 03:28:37;;;;;;;12.52;3.20;;;15.00;99.90;;;;;;5050508;28;20123;-76
2023/07/03 03:31:03;;;;;;;11.75;3.20;;;15.00;99.90;;;;;;5031550;28;20489;-76
2023/07/03 03:33:29;;;;;;;16.08;3.65;;;15.00;99.90;;;;;;5035301;28;20039;-76
2023/07/03 03:35:54;;;;;;;11.45;2.80;;;14.90;99.90;;;;;;5042740;28;20066;-76
2023/07/03 03:38:20;;;;;;;8.57;2.72;;;14.90;99.90;;;;;;5060012;28;20136;-76
2023/07/03 03:40:56;;;;;;;9.88;2.60;;;14.90;99.90;;;;;;5027696;28;20036;-76
2023/07/03 03:43:22;;;;;;;10.05;2.72;;;14.90;99.90;;;;;;5027992;28;20041;-76
2023/07/03 03:45:59;;;;;;;8.40;2.42;;;14.90;99.90;;;;;;5030165;28;20431;-76
2023/07/03 03:48:26;;;;;;;10.90;3.22;;;14.90;99.90;;;;;;5045503;28;20040;-76
2023/07/03 03:50:52;;;;;;;9.38;3.00;;;14.90;99.90;;;;;;5033735;28;20048;-76
2023/07/03 03:53:18;;;;;;;9.73;2.67;;;14.80;99.90;;;;;;5060638;28;20079;-76
2023/07/03 03:55:47;;;;;;;10.65;2.75;;;14.80;99.90;;;;;;5046450;28;20115;-76
2023/07/03 03:58:15;;;;;;;9.00;2.60;;;14.70;99.90;;;;;;5032542;28;20116;-76
2023/07/03 04:00:41;;;;;;;9.30;2.72;;;14.70;99.90;;;;;;5071122;28;20379;-76
2023/07/03 04:03:06;;;;;;;10.73;2.75;;;14.70;99.90;;;;;;5027796;28;20044;-76
2023/07/03 04:05:32;;;;;;;13.55;3.40;;;14.70;99.90;;;;;;5032015;28;20132;-76
2023/07/03 04:07:57;;;;;;;9.27;2.58;;;14.70;99.90;;;;;;5033679;28;20071;-76
2023/07/03 04:10:23;;;;;;;8.77;2.60;;;14.70;99.90;;;;;;5030903;28;20041;-76
2023/07/03 04:12:49;;;;;;;10.90;2.88;;;14.60;99.90;;;;;;5025567;28;20037;-76
2023/07/03 04:15:14;;;;;;;12.60;2.97;;;14.50;99.90;;;;;;5052570;28;20117;-76
2023/07/03 04:17:40;;;;;;;10.90;2.25;;;14.50;99.90;;;;;;5036580;28;20124;-76
2023/07/03 04:20:07;;;;;;;9.65;2.25;;;14.50;99.90;;;;;;5026509;28;20047;-76
2023/07/03 04:22:33;;;;;;;10.02;2.60;;;14.50;99.90;;;;;;5043891;28;20087;-76
2023/07/03 04:24:59;;;;;;;9.32;2.38;;;14.50;99.90;;;;;;5036417;28;20051;-76
2023/07/03 04:27:25;;;;;;;8.38;2.25;;;14.50;99.90;;;;;;5071875;28;20052;-76
2023/07/03 04:29:50;;;;;;;8.93;2.10;;;14.50;99.90;;;;;;5036421;28;20041;-76
2023/07/03 04:32:16;;;;;;;10.70;2.03;;;14.40;99.90;;;;;;5033000;28;20032;-76
2023/07/03 04:34:42;;;;;;;8.35;2.10;;;14.40;99.90;;;;;;5025562;28;20051;-76
2023/07/03 04:37:08;;;;;;;9.13;1.92;;;14.40;99.90;;;;;;5032060;28;20044;-76
2023/07/03 04:39:34;;;;;;;9.48;2.40;;;14.50;99.90;;;;;;5052989;28;20051;-76
2023/07/03 04:42:00;;;;;;;6.75;2.00;;;14.50;99.90;;;;;;5035574;28;20045;-76
2023/07/03 04:44:33;;;;;;;7.85;1.85;;;14.50;99.90;;;;;;5044715;28;20044;-76
2023/07/03 04:47:02;;;;;;;9.27;2.50;;;14.60;99.90;;;;;;5042834;28;20517;-76
2023/07/03 04:49:29;;;;;;;11.43;2.72;;;14.60;99.90;;;;;;5042395;28;20059;-76
2023/07/03 04:51:55;;;;;;;10.00;2.03;;;14.70;99.90;;;;;;5048287;28;20110;-76
2023/07/03 04:54:21;;;;;;;9.57;2.50;;;14.70;99.90;;;;;;5047005;28;20443;-76
2023/07/03 04:56:48;;;;;;;10.07;1.98;;;14.80;99.90;;;;;;5039883;28;20094;-76
2023/07/03 04:59:14;;;;;;;9.57;2.10;;;14.80;99.90;;;;;;5044184;28;20037;-76
2023/07/03 05:01:43;;;;;;;9.77;2.30;;;14.80;99.90;;;;;;5046874;28;20123;-76
2023/07/03 05:04:12;;;;;;;9.25;2.00;;;14.90;99.90;;;;;;5048897;28;20132;-76
2023/07/03 05:06:38;;;;;;;9.38;2.35;;;14.90;99.90;;;;;;5042652;28;20049;-76
2023/07/03 05:09:05;;;;;;;9.55;2.35;;;15.00;99.90;;;;;;5041605;28;20063;-76
2023/07/03 05:11:32;;;;;;;9.88;2.40;;;15.10;99.90;;;;;;5027606;28;20045;-76
2023/07/03 05:13:58;;;;;;;14.95;1.95;;;15.10;99.90;;;;;;5040520;28;20041;-74
2023/07/03 05:16:24;;;;;;;9.75;2.10;;;15.10;99.90;;;;;;5052402;28;20393;-74
2023/07/03 05:18:50;;;;;;;10.23;2.20;;;15.10;99.90;;;;;;5037719;28;20075;-74
2023/07/03 05:21:15;;;;;;;8.82;2.08;;;15.20;99.90;;;;;;5035046;28;20056;-74
2023/07/03 05:23:41;;;;;;;11.35;2.00;;;15.20;99.90;;;;;;5047816;28;20041;-74
2023/07/03 05:26:07;;;;;;;13.40;2.20;;;15.20;99.90;;;;;;5028380;28;20086;-74
2023/07/03 05:28:34;;;;;;;8.15;2.17;;;15.30;99.90;;;;;;5053886;28;20052;-74
2023/07/03 05:31:00;;;;;;;8.18;1.80;;;15.40;99.90;;;;;;5042941;28;20044;-74
2023/07/03 05:33:28;;;;;;;9.73;2.17;;;15.50;99.90;;;;;;5025470;28;20036;-74
2023/07/03 05:35:54;;;;;;;8.93;2.22;;;15.60;99.90;;;;;;5039186;28;20131;-74
2023/07/03 05:38:20;;;;;;;10.40;2.20;;;15.70;99.90;;;;;;5061079;28;20029;-74
2023/07/03 05:40:46;;;;;;;11.70;2.50;;;15.60;99.90;;;;;;5033728;28;20554;-74
2023/07/03 05:43:13;;;;;;;11.05;2.10;;;15.60;99.90;;;;;;5056381;28;20040;-74
2023/07/03 05:45:40;;;;;;;12.55;1.85;;;15.60;99.90;;;;;;5054789;28;20116;-74
2023/07/03 05:48:05;;;;;;;11.20;2.17;;;15.60;99.90;;;;;;5042508;28;20548;-74
2023/07/03 05:50:31;;;;;;;8.98;1.85;;;15.60;99.90;;;;;;5045352;28;20047;-74
2023/07/03 05:52:56;;;;;;;8.85;2.08;;;15.60;99.90;;;;;;5071885;28;20037;-74
2023/07/03 05:55:22;;;;;;;9.43;2.20;;;15.70;99.90;;;;;;5052453;28;20037;-74
2023/07/03 05:57:48;;;;;;;9.90;2.03;;;15.80;99.90;;;;;;5056322;28;20549;-74
2023/07/03 06:00:14;;;;;;;8.43;2.20;;;15.90;99.90;;;;;;5067932;28;20044;-74
2023/07/03 06:02:44;;;;;;;13.13;2.67;;;16.00;99.90;;;;;;5054450;28;20036;-74
2023/07/03 06:05:11;;;;;;;11.15;2.35;;;16.10;99.90;;;;;;5069746;28;20067;-75
2023/07/03 06:07:39;;;;;;;8.93;2.10;;;16.30;99.90;;;;;;5069944;28;20040;-74
2023/07/03 06:10:08;;;;;;;11.95;2.45;;;16.40;99.90;;;;;;5069364;28;20444;-74
2023/07/03 06:12:35;;;;;;;11.23;2.22;;;16.50;99.90;;;;;;5068749;28;20028;-74
2023/07/03 06:15:02;;;;;;;11.88;2.03;;;16.50;99.90;;;;;;5044597;28;20396;-74
2023/07/03 06:17:29;;;;;;;11.35;2.30;;;16.50;99.90;;;;;;5044784;28;20036;-77
2023/07/03 06:19:55;;;;;;;10.25;2.03;;;16.50;99.90;;;;;;5043873;28;20120;-71
2023/07/03 06:22:21;;;;;;;11.80;2.03;;;16.40;99.90;;;;;;5054829;28;20539;-71
2023/07/03 06:24:47;;;;;;;9.00;2.00;;;16.40;99.90;;;;;;5070635;28;20040;-72
2023/07/03 06:27:13;;;;;;;11.20;2.45;;;16.50;99.90;;;;;;5074116;28;20128;-70
2023/07/03 06:29:40;;;;;;;10.27;2.20;;;16.50;99.90;;;;;;5057745;28;20124;-71
2023/07/03 06:32:06;;;;;;;9.80;2.13;;;16.60;99.90;;;;;;5059099;28;20041;-70
2023/07/03 06:34:32;;;;;;;9.30;2.05;;;16.60;99.90;;;;;;5074985;28;20033;-71
2023/07/03 06:37:00;;;;;;;11.05;2.15;;;16.50;99.90;;;;;;5074634;28;20032;-70
2023/07/03 06:39:26;;;;;;;12.90;2.53;;;16.50;99.90;;;;;;5070813;28;20029;-71
2023/07/03 06:41:52;;;;;;;10.48;2.50;;;16.30;99.90;;;;;;5075306;28;20127;-72
2023/07/03 06:44:19;;;;;;;10.18;2.05;;;16.30;99.90;;;;;;5055716;28;20071;-72
2023/07/03 06:46:45;;;;;;;10.75;1.90;;;16.20;99.90;;;;;;5068355;28;20300;-69
2023/07/03 06:49:10;;;;;;;11.38;2.50;;;16.10;99.90;;;;;;5051866;28;20043;-70
2023/07/03 06:51:36;;;;;;;12.48;2.30;;;16.00;99.90;;;;;;5059848;28;20458;-75
2023/07/03 06:54:03;;;;;;;11.15;2.15;;;15.90;99.90;;;;;;5083000;28;20040;-75
2023/07/03 06:56:29;;;;;;;11.02;2.55;;;15.90;99.90;;;;;;5049097;28;20024;-74
2023/07/03 06:58:55;;;;;;;11.35;2.55;;;15.80;99.90;;;;;;5065261;28;20183;-74
2023/07/03 07:01:25;;;;;;;11.57;2.22;;;15.60;99.90;;;;;;5044958;28;20036;-74
2023/07/03 07:03:51;;;;;;;12.93;2.50;;;15.60;99.90;;;;;;5059408;28;20041;-74
2023/07/03 07:06:19;;;;;;;10.82;2.13;;;15.60;99.90;;;;;;5058059;28;20401;-73
2023/07/03 07:08:46;;;;;;;12.60;2.38;;;15.60;99.90;;;;;;5042045;28;20041;-74
2023/07/03 07:11:14;;;;;;;14.73;2.78;;;15.70;99.90;;;;;;5040634;28;20045;-74
2023/07/03 07:13:42;;;;;;;11.25;2.75;;;15.80;99.90;;;;;;5032074;28;20049;-74
2023/07/03 07:16:21;;;;;;;15.35;3.25;;;16.00;99.90;;;;;;5056904;28;20423;-74
2023/07/03 07:18:50;;;;;;;7.88;2.20;;;16.00;99.90;;;;;;5068560;28;20037;-73
2023/07/03 07:21:16;;;;;;;11.38;2.55;;;16.20;99.90;;;;;;5040191;28;20094;-74
2023/07/03 07:23:42;;;;;;;12.38;2.20;;;16.30;99.90;;;;;;5062174;28;20036;-74
2023/07/03 07:26:08;;;;;;;10.77;2.28;;;16.50;99.90;;;;;;5054045;28;20039;-73
2023/07/03 07:28:33;;;;;;;10.13;2.42;;;16.70;99.90;;;;;;5052113;28;20131;-74
2023/07/03 07:30:59;;;;;;;9.32;2.13;;;16.80;99.90;;;;;;5074516;28;20541;-74
2023/07/03 07:33:25;;;;;;;10.02;1.70;;;17.00;99.90;;;;;;5051946;28;20527;-74
2023/07/03 07:35:51;;;;;;;12.85;2.00;;;17.30;99.90;;;;;;5053927;28;20399;-74
2023/07/03 07:38:18;;;;;;;8.75;1.85;;;17.40;99.90;;;;;;5059089;28;20045;-74
2023/07/03 07:40:44;;;;;;;8.93;1.80;;;17.40;99.90;;;;;;5071545;28;20075;-75
2023/07/03 07:43:10;;;;;;;8.40;1.60;;;17.40;99.90;;;;;;5052141;28;20106;-72
2023/07/03 07:45:37;;;;;;;5.90;1.60;;;17.30;99.90;;;;;;5070482;28;20045;-74
2023/07/03 07:48:03;;;;;;;9.88;2.30;;;17.20;99.90;;;;;;5065105;28;20083;-74
2023/07/03 07:50:29;;;;;;;8.02;1.40;;;16.90;99.90;;;;;;5057609;28;20048;-74
2023/07/03 07:52:56;;;;;;;10.35;2.40;;;16.80;99.90;;;;;;5055264;28;20045;-73
2023/07/03 07:55:22;;;;;;;9.18;1.73;;;16.60;99.90;;;;;;5069617;28;20041;-73
2023/07/03 07:57:48;;;;;;;9.05;1.67;;;16.40;99.90;;;;;;5056597;28;20039;-73
2023/07/03 08:00:14;;;;;;;6.90;1.58;;;16.00;99.90;;;;;;5073773;28;20036;-73
2023/07/03 08:02:40;;;;;;;5.57;1.60;;;16.00;99.90;;;;;;5072268;28;20037;-73
2023/07/03 08:05:05;;;;;;;8.50;1.73;;;15.90;99.90;;;;;;5057191;28;20055;-73
2023/07/03 08:07:31;;;;;;;8.65;1.70;;;15.90;99.90;;;;;;5053037;28;20068;-73
2023/07/03 08:09:57;;;;;;;6.45;1.40;;;15.90;99.90;;;;;;5063288;28;20044;-73
2023/07/03 08:12:22;;;;;;;5.05;1.27;;;15.90;99.90;;;;;;5052439;28;20104;-73
2023/07/03 08:14:48;;;;;;;7.65;1.75;;;15.90;99.90;;;;;;5037199;28;20489;-73
2023/07/03 08:17:13;;;;;;;9.60;1.70;;;15.90;99.90;;;;;;5046954;28;20048;-73
2023/07/03 08:19:39;;;;;;;11.13;1.83;;;15.80;99.90;;;;;;5051275;28;20078;-73
2023/07/03 08:22:05;;;;;;;6.80;1.45;;;15.70;99.90;;;;;;5072968;28;20389;-73
2023/07/03 08:24:30;;;;;;;7.72;1.35;;;15.80;99.90;;;;;;5046653;28;20107;-73
2023/07/03 08:26:56;;;;;;;11.13;1.67;;;15.80;99.90;;;;;;5053251;28;20037;-73
2023/07/03 08:29:21;;;;;;;8.80;1.50;;;15.80;99.90;;;;;;5078714;28;20049;-73
2023/07/03 08:31:47;;;;;;;9.45;1.83;;;15.90;99.90;;;;;;5040152;28;20032;-73
2023/07/03 08:34:14;;;;;;;9.30;1.77;;;16.10;99.90;;;;;;5047885;28;20064;-73
2023/07/03 08:36:40;;;;;;;9.25;1.60;;;16.20;99.90;;;;;;5065568;28;20523;-73
2023/07/03 08:39:05;;;;;;;6.72;1.55;;;16.20;99.90;;;;;;5057417;28;20040;-73
2023/07/03 08:41:57;;;;;;;9.55;2.03;;;16.30;99.90;;;;;;5056653;28;20147;-73
2023/07/03 08:44:22;;;;;;;5.33;1.30;;;16.40;99.90;;;;;;5060299;28;20067;-73
2023/07/03 08:46:49;;;;;;;10.02;2.10;;;16.50;99.90;;;;;;5044977;28;20485;-73
2023/07/03 08:49:19;;;;;;;9.43;2.00;;;16.60;99.90;;;;;;5037165;28;20049;-72
2023/07/03 08:51:46;;;;;;;9.80;1.75;;;16.50;99.90;;;;;;5037904;28;20045;-73
2023/07/03 08:54:20;;;;;;;8.25;1.60;;;16.50;99.90;;;;;;5038114;28;20393;-73
2023/07/03 08:56:47;;;;;;;10.85;1.55;;;16.60;99.90;;;;;;5057177;28;20130;-73
2023/07/03 08:59:12;;;;;;;9.50;2.10;;;16.60;99.90;;;;;;5058670;28;20033;-73
2023/07/03 09:02:05;;;;;;;9.80;2.05;;;16.80;99.90;;;;;;5038388;28;20170;-73
2023/07/03 09:05:01;;;;;;;9.07;2.10;;;16.90;99.90;;;;;;5061266;28;20167;-73
2023/07/03 09:07:42;;;;;;;7.25;1.50;;;16.70;99.90;;;;;;5061639;28;20504;-73
2023/07/03 09:10:15;;;;;;;7.32;1.65;;;16.60;99.90;;;;;;5035895;28;20044;-73
2023/07/03 09:13:11;;;;;;;9.52;1.95;;;16.70;99.90;;;;;;5069599;28;20068;-73
2023/07/03 09:15:44;;;;;;;5.97;1.55;;;16.80;99.90;;;;;;5060710;28;20044;-73
2023/07/03 09:18:17;;;;;;;7.32;1.48;;;16.90;99.90;;;;;;5053126;28;20052;-73
2023/07/03 09:20:43;;;;;;;6.90;1.30;;;16.90;99.90;;;;;;5076901;28;20402;-73
2023/07/03 09:23:19;;;;;;;8.00;1.33;;;17.10;99.90;;;;;;5047283;28;20044;-72
2023/07/03 09:25:56;;;;;;;6.78;1.60;;;17.40;99.90;;;;;;5072991;28;20036;-73
2023/07/03 09:28:23;;;;;;;8.48;1.98;;;17.50;99.90;;;;;;5051909;28;20060;-73
2023/07/03 09:30:50;;;;;;;7.53;1.52;;;17.50;99.90;;;;;;5074871;28;20385;-73
2023/07/03 09:33:16;;;;;;;10.00;1.95;;;17.30;99.90;;;;;;5050105;28;20064;-73
2023/07/03 09:35:42;;;;;;;7.10;1.50;;;17.30;99.90;;;;;;5049719;28;20143;-74
2023/07/03 09:38:15;;;;;;;6.75;1.42;;;17.20;99.90;;;;;;5062031;28;20032;-73
2023/07/03 09:40:44;;;;;;;6.20;1.30;;;17.00;99.90;;;;;;5037030;28;20142;-73
2023/07/03 09:43:29;;;;;;;7.43;1.75;;;17.20;99.90;;;;;;5069357;28;20093;-73
2023/07/03 09:46:10;;;;;;;7.80;1.45;;;17.40;99.90;;;;;;5053410;28;20078;-73
2023/07/03 09:48:36;;;;;;;6.80;1.50;;;17.50;99.90;;;;;;5041426;28;20492;-73
2023/07/03 09:51:28;;;;;;;7.15;1.50;;;17.50;99.90;;;;;;5072390;28;20089;-73
2023/07/03 09:53:56;;;;;;;5.32;1.40;;;17.30;99.90;;;;;;5048072;28;20512;-73
2023/07/03 09:56:25;;;;;;;8.15;1.50;;;17.20;99.90;;;;;;5052254;28;20036;-73
2023/07/03 09:58:54;;;;;;;9.18;1.85;;;17.00;99.90;;;;;;5036978;28;20037;-73
2023/07/03 10:01:29;;;;;;;4.95;1.10;;;16.90;99.90;;;;;;5034158;28;20037;-73
2023/07/03 10:04:03;;;;;;;7.22;1.30;;;16.80;99.90;;;;;;5045264;28;20127;-73
2023/07/03 10:06:29;;;;;;;6.25;1.20;;;16.80;99.90;;;;;;5068251;28;20128;-73
2023/07/03 10:09:00;;;;;;;4.93;1.27;;;16.90;99.90;;;;;;5036315;28;20195;-73
2023/07/03 10:11:51;;;;;;;6.57;1.40;;;17.10;99.90;;;;;;5054448;28;20036;-73
2023/07/03 10:14:22;;;;;;;6.22;1.50;;;17.30;99.90;;;;;;5053994;28;20036;-73
2023/07/03 10:16:50;;;;;;;4.72;1.00;;;17.50;99.90;;;;;;5038368;28;20120;-73
2023/07/03 10:19:17;;;;;;;6.45;1.25;;;17.70;99.90;;;;;;5051615;28;20076;-73
2023/07/03 10:21:43;;;;;;;7.70;1.50;;;17.70;99.90;;;;;;5040737;28;20440;-73
2023/07/03 10:24:09;;;;;;;6.20;1.30;;;17.70;99.90;;;;;;5034736;28;20048;-73
2023/07/03 10:26:50;;;;;;;4.68;1.13;;;17.60;99.90;;;;;;5036143;28;20056;-73
2023/07/03 10:29:22;;;;;;;7.72;1.40;;;17.50;99.90;;;;;;5068879;28;20555;-73
2023/07/03 10:31:50;;;;;;;7.95;1.33;;;17.40;99.90;;;;;;5051175;28;20127;-73
2023/07/03 10:34:47;;;;;;;5.75;1.63;;;17.30;99.90;;;;;;5057451;28;20032;-73
2023/07/03 10:37:16;;;;;;;7.18;1.67;;;17.40;99.90;;;;;;5071080;28;20040;-73
2023/07/03 10:39:52;;;;;;;7.18;1.58;;;17.50;99.90;;;;;;5069542;28;20425;-73
2023/07/03 10:42:40;;;;;;;6.80;1.50;;;17.70;99.90;;;;;;5070961;28;20047;-73
2023/07/03 10:45:10;;;;;;;5.82;1.40;;;17.70;99.90;;;;;;5050022;28;20037;-73
2023/07/03 10:47:58;;;;;;;4.78;1.55;;;17.70;99.90;;;;;;5063951;28;20043;-74
2023/07/03 10:50:36;;;;;;;6.70;1.40;;;18.00;99.90;;;;;;5071900;28;20049;-73
2023/07/03 10:53:08;;;;;;;8.25;1.40;;;18.20;99.90;;;;;;5054442;28;20040;-73
2023/07/03 10:55:43;;;;;;;5.30;1.50;;;18.40;99.90;;;;;;5071662;28;20033;-74
2023/07/03 10:58:31;;;;;;;4.30;1.35;;;18.40;99.90;;;;;;5067280;28;20724;-73
2023/07/03 11:01:19;;;;;;;7.32;1.50;;;18.40;99.90;;;;;;5071621;28;20424;-74
2023/07/03 11:04:00;;;;;;;8.85;1.65;;;18.40;99.90;;;;;;5040948;28;20052;-74
2023/07/03 11:06:33;;;;;;;4.60;1.42;;;18.40;99.90;;;;;;5051391;28;20095;-73
2023/07/03 11:09:15;;;;;;;5.80;1.13;;;18.40;99.90;;;;;;5083838;28;20041;-74
2023/07/03 11:11:54;;;;;;;6.22;1.40;;;18.50;99.90;;;;;;5067309;28;20492;-74
2023/07/03 11:14:49;;;;;;;7.80;1.35;;;18.40;99.90;;;;;;5061292;28;20037;-75
2023/07/03 11:17:28;;;;;;;5.63;1.33;;;18.30;99.90;;;;;;5052583;28;20053;-74
2023/07/03 11:20:11;;;;;;;6.40;1.10;;;18.20;99.90;;;;;;5049540;28;20495;-75
2023/07/03 11:22:49;;;;;;;9.48;1.90;;;18.10;99.90;;;;;;5067556;28;20044;-74
2023/07/03 11:25:29;;;;;;;7.13;1.10;;;18.10;99.90;;;;;;5076931;28;20041;-74
2023/07/03 11:28:07;;;;;;;3.70;1.00;;;17.80;99.90;;;;;;5048066;28;20080;-74
2023/07/03 11:30:35;;;;;;;6.55;1.42;;;17.70;99.90;;;;;;5052063;28;20051;-74
2023/07/03 11:33:05;;;;;;;7.30;1.35;;;17.70;99.90;;;;;;5048876;28;20107;-75
2023/07/03 11:35:31;;;;;;;6.47;1.10;;;17.70;99.90;;;;;;5058190;28;20063;-75
2023/07/03 11:38:10;;;;;;;4.32;1.10;;;17.60;99.90;;;;;;5071621;28;20543;-74
2023/07/03 11:40:37;;;;;;;7.82;1.50;;;17.50;99.90;;;;;;5060292;28;20492;-75
2023/07/03 11:43:09;;;;;;;3.83;1.30;;;17.40;99.90;;;;;;5057712;28;20106;-74
2023/07/03 11:45:36;;;;;;;6.57;1.40;;;17.30;99.90;;;;;;5073507;28;20048;-74
2023/07/03 11:48:02;;;;;;;5.22;1.30;;;17.30;99.90;;;;;;5057231;28;20492;-74
2023/07/03 11:50:33;;;;;;;9.25;1.35;;;17.30;99.90;;;;;;5070978;28;20041;-74
2023/07/03 11:53:01;;;;;;;6.15;1.35;;;17.30;99.90;;;;;;5072637;28;20119;-74
2023/07/03 11:55:37;;;;;;;6.03;1.48;;;17.40;99.90;;;;;;5036794;28;20037;-74
2023/07/03 11:58:04;;;;;;;5.35;1.30;;;17.40;99.90;;;;;;5068341;28;20074;-74
2023/07/03 12:00:31;;;;;;;5.68;1.10;;;17.40;99.90;;;;;;5072993;28;20120;-74
2023/07/03 12:02:57;;;;;;;5.90;1.35;;;17.60;99.90;;;;;;5042668;28;20509;-75
2023/07/03 12:05:42;;;;;;;6.10;1.50;;;17.80;99.90;;;;;;5036800;28;20043;-74
2023/07/03 12:08:22;;;;;;;7.85;1.50;;;17.80;99.90;;;;;;5041008;28;20040;-75
2023/07/03 12:10:52;;;;;;;9.57;1.38;;;17.70;99.90;;;;;;5053349;28;20048;-74
2023/07/03 12:13:50;;;;;;;6.50;1.20;;;17.70;99.90;;;;;;5053434;28;20068;-75
2023/07/03 12:16:20;;;;;;;5.97;1.23;;;17.70;99.90;;;;;;5037146;28;20067;-74
2023/07/03 12:18:58;;;;;;;6.60;1.30;;;17.50;99.90;;;;;;5037605;28;20037;-74
2023/07/03 12:21:25;;;;;;;9.23;1.67;;;17.50;99.90;;;;;;5039973;28;20044;-74
2023/07/03 12:23:51;;;;;;;6.35;1.30;;;17.40;99.90;;;;;;5052679;28;20489;-74
2023/07/03 12:26:17;;;;;;;7.22;1.20;;;17.30;99.90;;;;;;5065097;28;20052;-74
2023/07/03 12:28:45;;;;;;;4.97;1.30;;;17.20;99.90;;;;;;5071904;28;20067;-74
2023/07/03 12:31:19;;;;;;;5.60;0.90;;;17.30;99.90;;;;;;5071609;28;20052;-74
2023/07/03 12:33:53;;;;;;;9.13;1.48;;;17.30;99.90;;;;;;5037625;28;20040;-75
2023/07/03 12:36:25;;;;;;;6.57;1.30;;;17.40;99.90;;;;;;5053015;28;20452;-74
2023/07/03 12:38:51;;;;;;;6.10;1.13;;;17.40;99.90;;;;;;5045777;28;20037;-74
2023/07/03 12:41:31;;;;;;;5.93;1.33;;;17.40;99.90;;;;;;5049444;28;20036;-74
2023/07/03 12:44:00;;;;;;;6.03;1.20;;;17.30;99.90;;;;;;5058607;28;20037;-74
2023/07/03 12:46:31;;;;;;;5.38;1.20;;;17.20;99.90;;;;;;5073532;28;20048;-74
2023/07/03 12:49:23;;;;;;;6.13;1.33;;;17.10;99.90;;;;;;5073909;28;20080;-73
2023/07/03 12:51:52;;;;;;;4.70;1.20;;;16.90;99.90;;;;;;5055312;28;20053;-76
2023/07/03 12:54:18;;;;;;;9.23;1.20;;;16.90;99.90;;;;;;5072409;28;20058;-73